Decoded Metar for VOCL (CALICUT in INDIA) (IATA:CCJ) | Meteo·Mobile Aviation Weather
aviador You're here:

VOCL Decoded Metar

CALICUT in INDIA
Report Time2018-10-24 05:30:00
UTC Time2018-10-24 05:52:03
Flight Rules mvfr MVFR
Wind250° at 04 kt
W.Decomp.*RWY 28: 3.5 kt HW 1.9 kt LCW
W.Rank250° ranks 10
Current wind is below 250° avg. (6.5)
Visibility6000 m
Phenomena:N/A
Clouds:Scattered 012 Hf
Expected CloudBase > 3,200 ft AGL from Temp-Dew spread
CeilingNone
Temp31°C (ISA +17)
Dew Point23°C (62% RH)
Heat Index35.4°C
QNH1012 hPa
Density Alt2,651 ft
Elevation341 ft
Report Wrong Elevation
Raw Report
METAR VOCL 240530Z 25004KT 6000 SCT012 31/23 Q1012 NOSIG=

Extra information for VOCL:More info

Metar Taf Metar & Taf Last 4 Metars F.Rules Stats Wind Profile Meteogram Temp Stats Airport Information Weather charts Add Link Nearby VenuesMetar ALERT Operation Metar Decoded Social comments